sensor_id;sensor_type;location;lat;lon;timestamp;pressure;altitude;pressure_sealevel;temperature;humidity
20628;BME280;10473;42.734;24.258;2023-04-01T00:01:35;91101.16;;;9.63;61.19
20628;BME280;10473;42.734;24.258;2023-04-01T00:04:04;91095.88;;;9.84;60.65
20628;BME280;10473;42.734;24.258;2023-04-01T00:06:32;91094.34;;;9.79;60.74
20628;BME280;10473;42.734;24.258;2023-04-01T00:08:59;91086.03;;;9.84;60.47
20628;BME280;10473;42.734;24.258;2023-04-01T00:11:27;91087.53;;;9.78;60.71
20628;BME280;10473;42.734;24.258;2023-04-01T00:13:54;91093.59;;;9.86;60.63
20628;BME280;10473;42.734;24.258;2023-04-01T00:16:22;91093.59;;;9.96;60.63
20628;BME280;10473;42.734;24.258;2023-04-01T00:18:50;91100.38;;;9.97;60.21
20628;BME280;10473;42.734;24.258;2023-04-01T00:21:20;91093.59;;;9.72;60.60
20628;BME280;10473;42.734;24.258;2023-04-01T00:23:48;91087.56;;;9.71;60.21
20628;BME280;10473;42.734;24.258;2023-04-01T00:26:16;91076.97;;;9.64;60.98
20628;BME280;10473;42.734;24.258;2023-04-01T00:28:47;91089.06;;;9.79;60.62
20628;BME280;10473;42.734;24.258;2023-04-01T00:31:15;91087.53;;;9.82;60.45
20628;BME280;10473;42.734;24.258;2023-04-01T00:33:43;91084.88;;;9.82;60.36
20628;BME280;10473;42.734;24.258;2023-04-01T00:36:12;91079.63;;;9.61;61.14
20628;BME280;10473;42.734;24.258;2023-04-01T00:38:42;91070.16;;;9.67;61.19
20628;BME280;10473;42.734;24.258;2023-04-01T00:41:10;91061.84;;;9.72;60.57
20628;BME280;10473;42.734;24.258;2023-04-01T00:43:40;91060.34;;;9.74;60.83
20628;BME280;10473;42.734;24.258;2023-04-01T00:46:08;91064.88;;;9.67;61.86
20628;BME280;10473;42.734;24.258;2023-04-01T00:48:38;91059.59;;;9.77;61.52
20628;BME280;10473;42.734;24.258;2023-04-01T00:51:09;91055.81;;;9.78;61.44
20628;BME280;10473;42.734;24.258;2023-04-01T00:53:40;91058.84;;;9.70;61.80
20628;BME280;10473;42.734;24.258;2023-04-01T00:56:14;91051.28;;;9.40;62.86
20628;BME280;10473;42.734;24.258;2023-04-01T00:58:46;91049.78;;;9.57;63.24
20628;BME280;10473;42.734;24.258;2023-04-01T01:01:15;91053.19;;;9.68;62.66
20628;BME280;10473;42.734;24.258;2023-04-01T01:03:43;91047.13;;;9.71;63.21
20628;BME280;10473;42.734;24.258;2023-04-01T01:06:27;91048.25;;;9.77;62.30
20628;BME280;10473;42.734;24.258;2023-04-01T01:09:09;91052.81;;;9.73;62.42
20628;BME280;10473;42.734;24.258;2023-04-01T01:11:45;91055.06;;;9.81;62.65
20628;BME280;10473;42.734;24.258;2023-04-01T01:14:25;91058.06;;;9.87;61.83
20628;BME280;10473;42.734;24.258;2023-04-01T01:17:07;91057.66;;;9.92;61.90
20628;BME280;10473;42.734;24.258;2023-04-01T01:19:52;91054.28;;;9.81;62.42
20628;BME280;10473;42.734;24.258;2023-04-01T01:22:36;91037.31;;;9.75;62.92
20628;BME280;10473;42.734;24.258;2023-04-01T01:25:30;91046.72;;;9.90;62.16
20628;BME280;10473;42.734;24.258;2023-04-01T01:28:15;91029.69;;;9.98;61.86
20628;BME280;10473;42.734;24.258;2023-04-01T01:30:56;91026.34;;;9.80;63.09
20628;BME280;10473;42.734;24.258;2023-04-01T01:36:17;91014.56;;;9.98;62.72
20628;BME280;10473;42.734;24.258;2023-04-01T01:38:48;91008.19;;;9.89;62.77
20628;BME280;10473;42.734;24.258;2023-04-01T01:41:18;91020.22;;;10.04;62.45
20628;BME280;10473;42.734;24.258;2023-04-01T01:43:50;91017.19;;;10.02;62.46
20628;BME280;10473;42.734;24.258;2023-04-01T01:46:21;91021.75;;;10.01;62.81
20628;BME280;10473;42.734;24.258;2023-04-01T01:48:51;91012.69;;;9.92;63.34
20628;BME280;10473;42.734;24.258;2023-04-01T01:51:22;91019.84;;;10.16;62.30
20628;BME280;10473;42.734;24.258;2023-04-01T01:53:50;91012.66;;;10.16;61.93
20628;BME280;10473;42.734;24.258;2023-04-01T01:56:23;91008.88;;;10.14;62.22
20628;BME280;10473;42.734;24.258;2023-04-01T01:58:56;91002.75;;;10.31;61.59
20628;BME280;10473;42.734;24.258;2023-04-01T02:01:28;91014.16;;;10.21;62.42
20628;BME280;10473;42.734;24.258;2023-04-01T02:04:09;91008.78;;;10.38;61.33
20628;BME280;10473;42.734;24.258;2023-04-01T02:06:43;91008.06;;;10.31;60.73
20628;BME280;10473;42.734;24.258;2023-04-01T02:09:13;90996.78;;;10.13;61.71
20628;BME280;10473;42.734;24.258;2023-04-01T02:11:44;91001.25;;;10.30;61.42
20628;BME280;10473;42.734;24.258;2023-04-01T02:14:15;90994.03;;;10.37;61.58
20628;BME280;10473;42.734;24.258;2023-04-01T02:16:49;91002.69;;;10.45;61.35
20628;BME280;10473;42.734;24.258;2023-04-01T02:19:20;90996.66;;;10.44;61.20
20628;BME280;10473;42.734;24.258;2023-04-01T02:21:55;90991.44;;;10.27;62.01
20628;BME280;10473;42.734;24.258;2023-04-01T02:24:28;90989.88;;;10.40;61.57
20628;BME280;10473;42.734;24.258;2023-04-01T02:26:59;90999.31;;;10.41;61.79
20628;BME280;10473;42.734;24.258;2023-04-01T02:29:27;90986.06;;;10.41;61.60
20628;BME280;10473;42.734;24.258;2023-04-01T02:31:55;90980.34;;;10.53;60.95
20628;BME280;10473;42.734;24.258;2023-04-01T02:34:24;90969.03;;;10.49;61.49
20628;BME280;10473;42.734;24.258;2023-04-01T02:36:55;90970.53;;;10.50;61.32
20628;BME280;10473;42.734;24.258;2023-04-01T02:39:23;90964.41;;;10.60;61.17
20628;BME280;10473;42.734;24.258;2023-04-01T02:41:51;90954.97;;;10.59;61.77
20628;BME280;10473;42.734;24.258;2023-04-01T02:44:45;90953.06;;;10.63;61.39
20628;BME280;10473;42.734;24.258;2023-04-01T02:47:13;90952.97;;;10.77;61.62
20628;BME280;10473;42.734;24.258;2023-04-01T02:49:41;90948.44;;;10.74;61.41
20628;BME280;10473;42.734;24.258;2023-04-01T02:52:10;90934.78;;;10.79;61.06
20628;BME280;10473;42.734;24.258;2023-04-01T02:54:38;90939.00;;;10.73;61.01
20628;BME280;10473;42.734;24.258;2023-04-01T02:57:09;90945.44;;;10.72;61.08
20628;BME280;10473;42.734;24.258;2023-04-01T02:59:38;90943.19;;;10.67;61.45
20628;BME280;10473;42.734;24.258;2023-04-01T03:02:05;90938.31;;;10.62;61.92
20628;BME280;10473;42.734;24.258;2023-04-01T03:04:33;90941.59;;;10.76;60.55
20628;BME280;10473;42.734;24.258;2023-04-01T03:07:01;90936.00;;;10.64;61.33
20628;BME280;10473;42.734;24.258;2023-04-01T03:09:32;90929.97;;;10.60;61.09
20628;BME280;10473;42.734;24.258;2023-04-01T03:12:00;90931.47;;;10.61;60.99
20628;BME280;10473;42.734;24.258;2023-04-01T03:14:28;90938.31;;;10.58;61.35
20628;BME280;10473;42.734;24.258;2023-04-01T03:16:56;90931.88;;;10.63;61.20
20628;BME280;10473;42.734;24.258;2023-04-01T03:19:24;90939.00;;;10.66;61.11
20628;BME280;10473;42.734;24.258;2023-04-01T03:21:52;90941.09;;;10.37;62.06
20628;BME280;10473;42.734;24.258;2023-04-01T03:24:20;90936.84;;;10.50;61.44
20628;BME280;10473;42.734;24.258;2023-04-01T03:26:49;90931.94;;;10.49;61.72
20628;BME280;10473;42.734;24.258;2023-04-01T03:29:19;90937.25;;;10.49;62.80
20628;BME280;10473;42.734;24.258;2023-04-01T03:31:46;90939.88;;;10.49;62.54
20628;BME280;10473;42.734;24.258;2023-04-01T03:34:14;90938.38;;;10.48;62.69
20628;BME280;10473;42.734;24.258;2023-04-01T03:36:42;90936.56;;;10.38;63.45
20628;BME280;10473;42.734;24.258;2023-04-01T03:39:09;90931.00;;;10.15;64.04
20628;BME280;10473;42.734;24.258;2023-04-01T03:41:41;90926.50;;;10.05;64.90
20628;BME280;10473;42.734;24.258;2023-04-01T03:44:10;90933.28;;;10.13;64.48
20628;BME280;10473;42.734;24.258;2023-04-01T03:46:38;90930.94;;;10.25;64.10
20628;BME280;10473;42.734;24.258;2023-04-01T03:49:07;90931.78;;;10.05;64.51
20628;BME280;10473;42.734;24.258;2023-04-01T03:51:38;90937.38;;;10.24;64.19
20628;BME280;10473;42.734;24.258;2023-04-01T03:54:06;90938.16;;;10.21;63.78
20628;BME280;10473;42.734;24.258;2023-04-01T03:56:33;90937.00;;;10.22;63.38
20628;BME280;10473;42.734;24.258;2023-04-01T03:59:02;90938.88;;;10.29;62.90
20628;BME280;10473;42.734;24.258;2023-04-01T04:01:32;90937.38;;;10.28;62.95
20628;BME280;10473;42.734;24.258;2023-04-01T04:04:00;90932.81;;;10.28;62.57
20628;BME280;10473;42.734;24.258;2023-04-01T04:06:28;90933.28;;;10.13;63.24
20628;BME280;10473;42.734;24.258;2023-04-01T04:08:56;90929.53;;;9.96;63.99
20628;BME280;10473;42.734;24.258;2023-04-01T04:11:24;90935.50;;;10.21;63.27
20628;BME280;10473;42.734;24.258;2023-04-01T04:13:53;90938.88;;;10.29;62.89
20628;BME280;10473;42.734;24.258;2023-04-01T04:16:20;90931.69;;;10.26;62.82
20628;BME280;10473;42.734;24.258;2023-04-01T04:18:56;90925.59;;;10.32;62.36
20628;BME280;10473;42.734;24.258;2023-04-01T04:21:24;90937.75;;;10.23;62.92
20628;BME280;10473;42.734;24.258;2023-04-01T04:23:51;90941.16;;;10.27;62.98
20628;BME280;10473;42.734;24.258;2023-04-01T04:26:20;90931.34;;;10.17;62.52
20628;BME280;10473;42.734;24.258;2023-04-01T04:28:59;90937.81;;;10.02;63.24
20628;BME280;10473;42.734;24.258;2023-04-01T04:31:27;90940.81;;;10.14;63.12
20628;BME280;10473;42.734;24.258;2023-04-01T04:34:00;90949.16;;;10.09;62.81
20628;BME280;10473;42.734;24.258;2023-04-01T04:36:29;90940.13;;;9.93;63.01
20628;BME280;10473;42.734;24.258;2023-04-01T04:38:57;90936.38;;;9.90;62.69
20628;BME280;10473;42.734;24.258;2023-04-01T04:41:28;90933.66;;;10.01;62.67
20628;BME280;10473;42.734;24.258;2023-04-01T04:43:57;90933.66;;;10.01;62.16
20628;BME280;10473;42.734;24.258;2023-04-01T04:46:25;90929.50;;;10.00;62.50
20628;BME280;10473;42.734;24.258;2023-04-01T04:49:04;90919.78;;;9.72;62.94
20628;BME280;10473;42.734;24.258;2023-04-01T04:51:32;90922.72;;;9.92;63.00
20628;BME280;10473;42.734;24.258;2023-04-01T04:54:02;90921.94;;;10.02;62.64
20628;BME280;10473;42.734;24.258;2023-04-01T04:56:47;90921.94;;;9.98;62.51
20628;BME280;10473;42.734;24.258;2023-04-01T04:59:15;90920.44;;;10.01;62.58
20628;BME280;10473;42.734;24.258;2023-04-01T05:01:49;90920.44;;;10.08;62.69
20628;BME280;10473;42.734;24.258;2023-04-01T05:04:19;90908.72;;;10.09;62.86
20628;BME280;10473;42.734;24.258;2023-04-01T05:06:46;90904.22;;;9.95;63.09
20628;BME280;10473;42.734;24.258;2023-04-01T05:09:15;90897.75;;;10.07;62.69
20628;BME280;10473;42.734;24.258;2023-04-01T05:11:42;90878.06;;;10.11;63.11
20628;BME280;10473;42.734;24.258;2023-04-01T05:14:14;90877.66;;;10.20;62.48
20628;BME280;10473;42.734;24.258;2023-04-01T05:16:46;90873.78;;;10.35;62.72
20628;BME280;10473;42.734;24.258;2023-04-01T05:19:15;90860.63;;;10.24;62.76
20628;BME280;10473;42.734;24.258;2023-04-01T05:21:44;90850.03;;;10.24;62.46
20628;BME280;10473;42.734;24.258;2023-04-01T05:24:12;90851.16;;;10.23;62.48
20628;BME280;10473;42.734;24.258;2023-04-01T05:26:41;90845.81;;;10.34;62.38
20628;BME280;10473;42.734;24.258;2023-04-01T05:29:09;90843.50;;;10.36;62.71
20628;BME280;10473;42.734;24.258;2023-04-01T05:31:38;90834.72;;;10.46;63.44
20628;BME280;10473;42.734;24.258;2023-04-01T05:34:07;90828.34;;;10.40;63.53
20628;BME280;10473;42.734;24.258;2023-04-01T05:36:35;90824.88;;;10.50;62.78
20628;BME280;10473;42.734;24.258;2023-04-01T05:39:04;90825.59;;;10.54;62.46
20628;BME280;10473;42.734;24.258;2023-04-01T05:41:34;90824.50;;;10.51;62.56
20628;BME280;10473;42.734;24.258;2023-04-01T05:44:03;90808.44;;;10.69;62.45
20628;BME280;10473;42.734;24.258;2023-04-01T05:46:40;90795.50;;;10.78;61.72
20628;BME280;10473;42.734;24.258;2023-04-01T05:49:20;90787.09;;;10.86;61.58
20628;BME280;10473;42.734;24.258;2023-04-01T05:51:49;90790.63;;;10.73;61.69
20628;BME280;10473;42.734;24.258;2023-04-01T05:54:19;90781.41;;;10.88;61.12
20628;BME280;10473;42.734;24.258;2023-04-01T05:56:49;90780.50;;;11.01;60.18
20628;BME280;10473;42.734;24.258;2023-04-01T05:59:18;90780.38;;;11.15;60.14
20628;BME280;10473;42.734;24.258;2023-04-01T06:01:46;90783.25;;;11.28;60.01
20628;BME280;10473;42.734;24.258;2023-04-01T06:04:17;90774.91;;;11.29;60.26
20628;BME280;10473;42.734;24.258;2023-04-01T06:06:54;90783.88;;;11.39;59.73
20628;BME280;10473;42.734;24.258;2023-04-01T06:09:44;90790.69;;;11.40;58.92
20628;BME280;10473;42.734;24.258;2023-04-01T06:12:32;90786.41;;;11.49;59.13
20628;BME280;10473;42.734;24.258;2023-04-01T06:15:15;90798.72;;;11.66;59.27
20628;BME280;10473;42.734;24.258;2023-04-01T06:18:15;90793.41;;;11.70;59.24
20628;BME280;10473;42.734;24.258;2023-04-01T06:20:56;90802.03;;;11.77;57.46
20628;BME280;10473;42.734;24.258;2023-04-01T06:23:41;90806.91;;;11.82;57.99
20628;BME280;10473;42.734;24.258;2023-04-01T06:26:24;90810.06;;;12.00;56.09
20628;BME280;10473;42.734;24.258;2023-04-01T06:32:29;90816.91;;;12.51;54.75
20628;BME280;10473;42.734;24.258;2023-04-01T06:38:10;90817.03;;;13.16;53.82
20628;BME280;10473;42.734;24.258;2023-04-01T06:43:53;90818.22;;;13.74;51.55
20628;BME280;10473;42.734;24.258;2023-04-01T06:46:45;90806.47;;;13.91;50.03
20628;BME280;10473;42.734;24.258;2023-04-01T06:49:47;90806.94;;;14.05;48.92
20628;BME280;10473;42.734;24.258;2023-04-01T06:52:50;90811.28;;;14.15;49.20
20628;BME280;10473;42.734;24.258;2023-04-01T06:55:38;90799.28;;;14.27;47.70
20628;BME280;10473;42.734;24.258;2023-04-01T06:58:21;90788.72;;;14.39;48.04
20628;BME280;10473;42.734;24.258;2023-04-01T07:00:54;90793.06;;;14.49;47.65
20628;BME280;10473;42.734;24.258;2023-04-01T07:03:30;90798.78;;;14.48;47.84
20628;BME280;10473;42.734;24.258;2023-04-01T07:06:03;90798.41;;;14.65;48.34
20628;BME280;10473;42.734;24.258;2023-04-01T07:08:37;90803.13;;;14.74;47.85
20628;BME280;10473;42.734;24.258;2023-04-01T07:11:25;90803.13;;;14.74;45.97
20628;BME280;10473;42.734;24.258;2023-04-01T07:14:30;90799.72;;;14.89;46.81
20628;BME280;10473;42.734;24.258;2023-04-01T07:17:07;90801.06;;;14.97;45.91
20628;BME280;10473;42.734;24.258;2023-04-01T07:19:44;90798.22;;;15.04;47.15
20628;BME280;10473;42.734;24.258;2023-04-01T07:22:41;90786.31;;;14.93;46.55
20628;BME280;10473;42.734;24.258;2023-04-01T07:25:42;90788.72;;;14.71;46.77
20628;BME280;10473;42.734;24.258;2023-04-01T07:28:46;90786.31;;;14.77;46.26
20628;BME280;10473;42.734;24.258;2023-04-01T07:31:49;90784.72;;;14.79;46.02
20628;BME280;10473;42.734;24.258;2023-04-01T07:34:26;90785.50;;;14.80;45.52
20628;BME280;10473;42.734;24.258;2023-04-01T07:37:00;90783.81;;;14.86;46.21
20628;BME280;10473;42.734;24.258;2023-04-01T07:39:41;90786.22;;;14.96;46.73
20628;BME280;10473;42.734;24.258;2023-04-01T07:42:25;90783.13;;;14.98;45.86
20628;BME280;10473;42.734;24.258;2023-04-01T07:47:59;90750.13;;;14.92;44.71
20628;BME280;10473;42.734;24.258;2023-04-01T07:50:38;90756.38;;;14.85;45.14
20628;BME280;10473;42.734;24.258;2023-04-01T07:53:13;90755.00;;;14.81;44.89
20628;BME280;10473;42.734;24.258;2023-04-01T07:55:56;90756.47;;;14.82;45.28
20628;BME280;10473;42.734;24.258;2023-04-01T07:58:32;90749.16;;;14.86;44.77
20628;BME280;10473;42.734;24.258;2023-04-01T08:01:13;90745.22;;;14.90;44.42
20628;BME280;10473;42.734;24.258;2023-04-01T08:04:04;90742.28;;;15.01;44.31
20628;BME280;10473;42.734;24.258;2023-04-01T08:06:43;90731.06;;;15.22;44.32
20628;BME280;10473;42.734;24.258;2023-04-01T08:09:22;90728.56;;;15.72;44.08
20628;BME280;10473;42.734;24.258;2023-04-01T08:12:11;90720.16;;;16.36;42.23
20628;BME280;10473;42.734;24.258;2023-04-01T08:15:16;90712.47;;;16.75;39.46
20628;BME280;10473;42.734;24.258;2023-04-01T08:18:16;90710.25;;;17.42;39.43
20628;BME280;10473;42.734;24.258;2023-04-01T08:20:52;90723.53;;;18.28;38.01
20628;BME280;10473;42.734;24.258;2023-04-01T08:23:26;90707.34;;;18.71;36.94
20628;BME280;10473;42.734;24.258;2023-04-01T08:26:01;90692.66;;;18.54;35.57
20628;BME280;10473;42.734;24.258;2023-04-01T08:28:38;90693.53;;;18.11;36.19
20628;BME280;10473;42.734;24.258;2023-04-01T08:31:13;90682.16;;;17.98;36.35
20628;BME280;10473;42.734;24.258;2023-04-01T08:33:44;90685.38;;;17.63;37.05
20628;BME280;10473;42.734;24.258;2023-04-01T08:36:17;90689.75;;;17.48;37.17
20628;BME280;10473;42.734;24.258;2023-04-01T08:38:57;90672.78;;;17.29;37.42
20628;BME280;10473;42.734;24.258;2023-04-01T08:45:14;90673.41;;;16.78;38.57
20628;BME280;10473;42.734;24.258;2023-04-01T08:54:21;90671.41;;;16.32;39.09
20628;BME280;10473;42.734;24.258;2023-04-01T08:57:01;90666.09;;;16.07;39.63
20628;BME280;10473;42.734;24.258;2023-04-01T09:05:41;90670.25;;;15.95;41.29
20628;BME280;10473;42.734;24.258;2023-04-01T09:08:28;90666.50;;;15.93;41.69
20628;BME280;10473;42.734;24.258;2023-04-01T09:11:09;90661.81;;;15.97;41.32
20628;BME280;10473;42.734;24.258;2023-04-01T09:14:26;90654.66;;;15.94;42.25
20628;BME280;10473;42.734;24.258;2023-04-01T09:17:38;90648.03;;;16.11;42.87
20628;BME280;10473;42.734;24.258;2023-04-01T09:23:35;90639.72;;;16.68;41.33
20628;BME280;10473;42.734;24.258;2023-04-01T09:26:35;90624.53;;;16.65;40.28
20628;BME280;10473;42.734;24.258;2023-04-01T09:29:18;90635.28;;;17.08;41.24
20628;BME280;10473;42.734;24.258;2023-04-01T09:32:09;90621.09;;;17.20;39.55
20628;BME280;10473;42.734;24.258;2023-04-01T09:35:20;90603.84;;;17.21;39.95
20628;BME280;10473;42.734;24.258;2023-04-01T09:37:54;90601.22;;;17.30;40.23
20628;BME280;10473;42.734;24.258;2023-04-01T09:40:33;90608.16;;;17.40;38.92
20628;BME280;10473;42.734;24.258;2023-04-01T09:43:20;90606.16;;;17.53;39.96
20628;BME280;10473;42.734;24.258;2023-04-01T09:46:03;90611.03;;;17.45;38.71
20628;BME280;10473;42.734;24.258;2023-04-01T09:49:09;90607.28;;;17.21;39.35
20628;BME280;10473;42.734;24.258;2023-04-01T09:51:49;90602.25;;;17.02;39.79
20628;BME280;10473;42.734;24.258;2023-04-01T09:54:37;90607.66;;;16.89;39.42
20628;BME280;10473;42.734;24.258;2023-04-01T09:57:27;90595.75;;;16.69;39.62
20628;BME280;10473;42.734;24.258;2023-04-01T10:03:37;90596.56;;;16.32;40.05
20628;BME280;10473;42.734;24.258;2023-04-01T10:06:49;90591.56;;;16.21;40.61
20628;BME280;10473;42.734;24.258;2023-04-01T10:12:41;90582.69;;;16.12;41.57
20628;BME280;10473;42.734;24.258;2023-04-01T10:15:46;90582.00;;;15.99;42.13
20628;BME280;10473;42.734;24.258;2023-04-01T10:18:55;90572.56;;;15.94;41.75
20628;BME280;10473;42.734;24.258;2023-04-01T10:21:50;90571.09;;;15.93;42.55
20628;BME280;10473;42.734;24.258;2023-04-01T10:24:37;90564.78;;;16.00;42.66
20628;BME280;10473;42.734;24.258;2023-04-01T10:27:46;90570.75;;;16.04;42.06
20628;BME280;10473;42.734;24.258;2023-04-01T10:34:12;90546.38;;;16.02;41.85
20628;BME280;10473;42.734;24.258;2023-04-01T10:36:51;90542.44;;;16.06;41.88
20628;BME280;10473;42.734;24.258;2023-04-01T10:43:14;90535.13;;;16.19;41.15
20628;BME280;10473;42.734;24.258;2023-04-01T10:46:11;90532.53;;;16.28;41.18
20628;BME280;10473;42.734;24.258;2023-04-01T10:52:42;90510.16;;;16.35;41.52
20628;BME280;10473;42.734;24.258;2023-04-01T10:56:34;90514.66;;;16.38;42.24
20628;BME280;10473;42.734;24.258;2023-04-01T11:06:12;90507.47;;;16.69;40.03
20628;BME280;10473;42.734;24.258;2023-04-01T11:12:30;90482.88;;;17.04;39.01
20628;BME280;10473;42.734;24.258;2023-04-01T11:18:51;90486.84;;;17.70;39.20
20628;BME280;10473;42.734;24.258;2023-04-01T11:21:49;90464.22;;;17.62;38.20
20628;BME280;10473;42.734;24.258;2023-04-01T11:24:51;90459.19;;;17.73;38.50
20628;BME280;10473;42.734;24.258;2023-04-01T11:30:57;90457.56;;;17.36;41.02
20628;BME280;10473;42.734;24.258;2023-04-01T11:33:34;90457.53;;;17.27;40.78
20628;BME280;10473;42.734;24.258;2023-04-01T11:36:19;90453.16;;;17.11;42.14
20628;BME280;10473;42.734;24.258;2023-04-01T11:38:58;90445.03;;;16.93;42.20
20628;BME280;10473;42.734;24.258;2023-04-01T11:41:49;90442.81;;;16.92;43.27
20628;BME280;10473;42.734;24.258;2023-04-01T11:44:45;90439.25;;;16.95;42.41
20628;BME280;10473;42.734;24.258;2023-04-01T11:47:52;90451.22;;;16.81;43.41
20628;BME280;10473;42.734;24.258;2023-04-01T11:50:31;90439.28;;;16.73;43.95
20628;BME280;10473;42.734;24.258;2023-04-01T11:53:16;90438.84;;;16.75;43.00
20628;BME280;10473;42.734;24.258;2023-04-01T11:56:02;90442.16;;;16.79;42.60
20628;BME280;10473;42.734;24.258;2023-04-01T11:59:01;90429.03;;;16.72;43.50
20628;BME280;10473;42.734;24.258;2023-04-01T12:01:45;90411.34;;;16.44;43.29
20628;BME280;10473;42.734;24.258;2023-04-01T12:07:33;90426.03;;;16.27;43.61
20628;BME280;10473;42.734;24.258;2023-04-01T12:10:15;90412.31;;;16.16;44.37
20628;BME280;10473;42.734;24.258;2023-04-01T12:12:50;90417.63;;;15.94;44.61
20628;BME280;10473;42.734;24.258;2023-04-01T12:15:23;90420.72;;;15.93;44.14
20628;BME280;10473;42.734;24.258;2023-04-01T12:17:57;90417.94;;;15.75;44.93
20628;BME280;10473;42.734;24.258;2023-04-01T12:20:40;90418.47;;;15.70;45.55
20628;BME280;10473;42.734;24.258;2023-04-01T12:23:23;90406.31;;;15.69;45.23
20628;BME280;10473;42.734;24.258;2023-04-01T12:26:06;90409.53;;;15.64;45.92
20628;BME280;10473;42.734;24.258;2023-04-01T12:28:46;90413.34;;;15.63;46.08
20628;BME280;10473;42.734;24.258;2023-04-01T12:31:31;90410.88;;;15.68;46.08
20628;BME280;10473;42.734;24.258;2023-04-01T12:34:35;90420.09;;;15.67;46.75
20628;BME280;10473;42.734;24.258;2023-04-01T12:37:12;90421.91;;;15.58;46.57
20628;BME280;10473;42.734;24.258;2023-04-01T12:40:20;90418.63;;;15.54;46.48
20628;BME280;10473;42.734;24.258;2023-04-01T12:43:05;90434.00;;;15.50;47.13
20628;BME280;10473;42.734;24.258;2023-04-01T12:45:43;90458.47;;;15.48;46.84
20628;BME280;10473;42.734;24.258;2023-04-01T12:48:31;90476.06;;;15.58;46.57
20628;BME280;10473;42.734;24.258;2023-04-01T12:51:40;90521.75;;;15.73;46.85
20628;BME280;10473;42.734;24.258;2023-04-01T12:57:33;90594.31;;;14.77;56.11
20628;BME280;10473;42.734;24.258;2023-04-01T13:00:26;90643.34;;;13.71;62.62
20628;BME280;10473;42.734;24.258;2023-04-01T13:03:12;90669.72;;;13.10;66.31
20628;BME280;10473;42.734;24.258;2023-04-01T13:08:55;90695.97;;;11.97;73.32
20628;BME280;10473;42.734;24.258;2023-04-01T13:11:34;90704.78;;;11.64;74.55
20628;BME280;10473;42.734;24.258;2023-04-01T13:14:29;90709.06;;;11.24;74.62
20628;BME280;10473;42.734;24.258;2023-04-01T13:17:07;90722.38;;;11.17;75.50
20628;BME280;10473;42.734;24.258;2023-04-01T13:19:42;90716.13;;;11.04;76.42
20628;BME280;10473;42.734;24.258;2023-04-01T13:22:17;90710.94;;;10.94;77.32
20628;BME280;10473;42.734;24.258;2023-04-01T13:24:52;90715.94;;;10.85;76.80
20628;BME280;10473;42.734;24.258;2023-04-01T13:30:49;90698.88;;;10.86;76.53
20628;BME280;10473;42.734;24.258;2023-04-01T13:33:27;90683.88;;;10.76;77.05
20628;BME280;10473;42.734;24.258;2023-04-01T13:36:08;90677.84;;;10.75;77.63
20628;BME280;10473;42.734;24.258;2023-04-01T13:39:05;90678.69;;;10.65;77.41
20628;BME280;10473;42.734;24.258;2023-04-01T13:42:02;90667.94;;;10.79;77.98
20628;BME280;10473;42.734;24.258;2023-04-01T13:44:42;90666.91;;;11.03;77.94
20628;BME280;10473;42.734;24.258;2023-04-01T13:47:28;90666.72;;;11.17;77.27
20628;BME280;10473;42.734;24.258;2023-04-01T13:50:26;90658.19;;;11.33;75.69
20628;BME280;10473;42.734;24.258;2023-04-01T13:53:24;90648.88;;;11.48;74.20
20628;BME280;10473;42.734;24.258;2023-04-01T13:56:13;90649.44;;;11.66;75.19
20628;BME280;10473;42.734;24.258;2023-04-01T14:19:30;90651.97;;;12.42;72.62
20628;BME280;10473;42.734;24.258;2023-04-01T14:22:06;90654.66;;;12.19;72.88
20628;BME280;10473;42.734;24.258;2023-04-01T14:29:00;90565.16;;;11.73;75.95
20628;BME280;10473;42.734;24.258;2023-04-01T14:31:04;90569.72;;;11.73;77.73
20628;BME280;10473;42.734;24.258;2023-04-01T14:33:45;90551.97;;;11.70;78.72
20628;BME280;10473;42.734;24.258;2023-04-01T14:36:43;90520.72;;;11.54;79.21
20628;BME280;10473;42.734;24.258;2023-04-01T14:40:04;90502.44;;;11.37;79.61
20628;BME280;10473;42.734;24.258;2023-04-01T14:43:33;90509.47;;;11.24;79.30
20628;BME280;10473;42.734;24.258;2023-04-01T14:50:25;90499.59;;;11.47;80.22
20628;BME280;10473;42.734;24.258;2023-04-01T14:52:59;90485.25;;;11.45;78.82
20628;BME280;10473;42.734;24.258;2023-04-01T14:55:49;90490.75;;;11.57;77.24
20628;BME280;10473;42.734;24.258;2023-04-01T14:58:18;90489.16;;;11.63;75.84
20628;BME280;10473;42.734;24.258;2023-04-01T15:01:02;90483.84;;;11.63;76.19
20628;BME280;10473;42.734;24.258;2023-04-01T15:03:39;90494.63;;;11.76;72.61
20628;BME280;10473;42.734;24.258;2023-04-01T15:09:17;90476.59;;;11.87;72.31
20628;BME280;10473;42.734;24.258;2023-04-01T15:11:59;90476.94;;;11.89;74.02
20628;BME280;10473;42.734;24.258;2023-04-01T15:14:50;90490.19;;;11.89;72.75
20628;BME280;10473;42.734;24.258;2023-04-01T15:18:03;90493.44;;;12.00;72.59
20628;BME280;10473;42.734;24.258;2023-04-01T15:20:51;90490.91;;;12.12;72.92
20628;BME280;10473;42.734;24.258;2023-04-01T15:23:31;90488.53;;;12.18;71.16
20628;BME280;10473;42.734;24.258;2023-04-01T15:26:23;90495.19;;;12.26;71.16
20628;BME280;10473;42.734;24.258;2023-04-01T15:29:06;90500.44;;;12.29;70.54
20628;BME280;10473;42.734;24.258;2023-04-01T15:31:42;90503.91;;;12.46;71.07
20628;BME280;10473;42.734;24.258;2023-04-01T15:34:26;90511.19;;;12.42;70.71
20628;BME280;10473;42.734;24.258;2023-04-01T15:36:59;90515.91;;;12.54;71.08
20628;BME280;10473;42.734;24.258;2023-04-01T15:39:42;90522.16;;;12.63;71.25
20628;BME280;10473;42.734;24.258;2023-04-01T15:42:24;90534.63;;;12.66;70.95
20628;BME280;10473;42.734;24.258;2023-04-01T15:45:06;90531.91;;;12.31;73.52
20628;BME280;10473;42.734;24.258;2023-04-01T15:47:41;90541.63;;;12.57;72.51
20628;BME280;10473;42.734;24.258;2023-04-01T15:50:28;90533.59;;;12.60;71.68